sensor_id;sensor_type;location;lat;lon;timestamp;pressure;altitude;pressure_sealevel;temperature
4421;BMP180;11824;51.178;13.546;2023-03-01T00:01:14;101594.00;;;-3.90
4421;BMP180;11824;51.178;13.546;2023-03-01T00:03:42;101594.00;;;-3.90
4421;BMP180;11824;51.178;13.546;2023-03-01T00:06:09;101589.00;;;-4.00
4421;BMP180;11824;51.178;13.546;2023-03-01T00:08:37;101595.00;;;-4.00
4421;BMP180;11824;51.178;13.546;2023-03-01T00:11:06;101600.00;;;-4.00
4421;BMP180;11824;51.178;13.546;2023-03-01T00:13:35;101602.00;;;-4.10
4421;BMP180;11824;51.178;13.546;2023-03-01T00:16:04;101597.00;;;-4.10
4421;BMP180;11824;51.178;13.546;2023-03-01T00:18:32;101585.00;;;-4.10
4421;BMP180;11824;51.178;13.546;2023-03-01T00:20:59;101583.00;;;-4.20
4421;BMP180;11824;51.178;13.546;2023-03-01T00:23:27;101577.00;;;-4.20
4421;BMP180;11824;51.178;13.546;2023-03-01T00:25:54;101576.00;;;-4.20
4421;BMP180;11824;51.178;13.546;2023-03-01T00:28:22;101577.00;;;-4.20
4421;BMP180;11824;51.178;13.546;2023-03-01T00:30:50;101573.00;;;-4.20
4421;BMP180;11824;51.178;13.546;2023-03-01T00:33:17;101577.00;;;-4.20
4421;BMP180;11824;51.178;13.546;2023-03-01T00:35:45;101589.00;;;-4.30
4421;BMP180;11824;51.178;13.546;2023-03-01T00:38:12;101584.00;;;-4.30
4421;BMP180;11824;51.178;13.546;2023-03-01T00:40:39;101581.00;;;-4.30
4421;BMP180;11824;51.178;13.546;2023-03-01T00:43:07;101586.00;;;-4.30
4421;BMP180;11824;51.178;13.546;2023-03-01T00:45:35;101581.00;;;-4.30
4421;BMP180;11824;51.178;13.546;2023-03-01T00:48:03;101569.00;;;-4.30
4421;BMP180;11824;51.178;13.546;2023-03-01T00:50:31;101566.00;;;-4.30
4421;BMP180;11824;51.178;13.546;2023-03-01T00:52:59;101564.00;;;-4.30
4421;BMP180;11824;51.178;13.546;2023-03-01T00:55:26;101546.00;;;-4.40
4421;BMP180;11824;51.178;13.546;2023-03-01T00:57:53;101557.00;;;-4.40
4421;BMP180;11824;51.178;13.546;2023-03-01T01:00:21;101550.00;;;-4.40
4421;BMP180;11824;51.178;13.546;2023-03-01T01:02:49;101551.00;;;-4.40
4421;BMP180;11824;51.178;13.546;2023-03-01T01:05:17;101545.00;;;-4.40
4421;BMP180;11824;51.178;13.546;2023-03-01T01:07:47;101547.00;;;-4.50
4421;BMP180;11824;51.178;13.546;2023-03-01T01:10:15;101546.00;;;-4.50
4421;BMP180;11824;51.178;13.546;2023-03-01T01:12:44;101550.00;;;-4.50
4421;BMP180;11824;51.178;13.546;2023-03-01T01:15:11;101554.00;;;-4.50
4421;BMP180;11824;51.178;13.546;2023-03-01T01:17:40;101550.00;;;-4.50
4421;BMP180;11824;51.178;13.546;2023-03-01T01:20:09;101554.00;;;-4.50
4421;BMP180;11824;51.178;13.546;2023-03-01T01:22:37;101563.00;;;-4.60
4421;BMP180;11824;51.178;13.546;2023-03-01T01:25:05;101557.00;;;-4.60
4421;BMP180;11824;51.178;13.546;2023-03-01T01:27:32;101559.00;;;-4.60
4421;BMP180;11824;51.178;13.546;2023-03-01T01:30:00;101552.00;;;-4.70
4421;BMP180;11824;51.178;13.546;2023-03-01T01:32:27;101544.00;;;-4.70
4421;BMP180;11824;51.178;13.546;2023-03-01T01:34:54;101539.00;;;-4.70
4421;BMP180;11824;51.178;13.546;2023-03-01T01:37:22;101534.00;;;-4.80
4421;BMP180;11824;51.178;13.546;2023-03-01T01:39:50;101526.00;;;-4.80
4421;BMP180;11824;51.178;13.546;2023-03-01T01:42:18;101519.00;;;-4.80
4421;BMP180;11824;51.178;13.546;2023-03-01T01:44:46;101525.00;;;-4.80
4421;BMP180;11824;51.178;13.546;2023-03-01T01:47:16;101535.00;;;-4.80
4421;BMP180;11824;51.178;13.546;2023-03-01T01:49:47;101527.00;;;-4.80
4421;BMP180;11824;51.178;13.546;2023-03-01T01:52:18;101520.00;;;-4.80
4421;BMP180;11824;51.178;13.546;2023-03-01T01:54:51;101527.00;;;-4.80
4421;BMP180;11824;51.178;13.546;2023-03-01T01:57:24;101522.00;;;-4.90
4421;BMP180;11824;51.178;13.546;2023-03-01T01:59:54;101518.00;;;-4.90
4421;BMP180;11824;51.178;13.546;2023-03-01T02:02:23;101520.00;;;-4.90
4421;BMP180;11824;51.178;13.546;2023-03-01T02:04:55;101523.00;;;-5.00
4421;BMP180;11824;51.178;13.546;2023-03-01T02:07:26;101516.00;;;-5.00
4421;BMP180;11824;51.178;13.546;2023-03-01T02:09:55;101516.00;;;-5.00
4421;BMP180;11824;51.178;13.546;2023-03-01T02:12:25;101504.00;;;-5.00
4421;BMP180;11824;51.178;13.546;2023-03-01T02:14:52;101507.00;;;-5.00
4421;BMP180;11824;51.178;13.546;2023-03-01T02:17:20;101505.00;;;-5.10
4421;BMP180;11824;51.178;13.546;2023-03-01T02:19:57;101513.00;;;-5.10
4421;BMP180;11824;51.178;13.546;2023-03-01T02:22:30;101510.00;;;-5.10
4421;BMP180;11824;51.178;13.546;2023-03-01T02:25:07;101513.00;;;-5.10
4421;BMP180;11824;51.178;13.546;2023-03-01T02:27:55;101522.00;;;-5.10
4421;BMP180;11824;51.178;13.546;2023-03-01T02:30:26;101509.00;;;-5.20
4421;BMP180;11824;51.178;13.546;2023-03-01T02:32:55;101520.00;;;-5.20
4421;BMP180;11824;51.178;13.546;2023-03-01T02:35:30;101500.00;;;-5.20
4421;BMP180;11824;51.178;13.546;2023-03-01T02:37:59;101490.00;;;-5.20
4421;BMP180;11824;51.178;13.546;2023-03-01T02:40:29;101500.00;;;-5.20
4421;BMP180;11824;51.178;13.546;2023-03-01T02:42:58;101500.00;;;-5.20
4421;BMP180;11824;51.178;13.546;2023-03-01T02:45:27;101498.00;;;-5.30
4421;BMP180;11824;51.178;13.546;2023-03-01T02:47:54;101491.00;;;-5.30
4421;BMP180;11824;51.178;13.546;2023-03-01T02:50:35;101490.00;;;-5.30
4421;BMP180;11824;51.178;13.546;2023-03-01T02:53:15;101489.00;;;-5.30
4421;BMP180;11824;51.178;13.546;2023-03-01T02:55:44;101488.00;;;-5.30
4421;BMP180;11824;51.178;13.546;2023-03-01T02:58:11;101486.00;;;-5.30
4421;BMP180;11824;51.178;13.546;2023-03-01T03:00:41;101485.00;;;-5.30
4421;BMP180;11824;51.178;13.546;2023-03-01T03:03:13;101491.00;;;-5.30
4421;BMP180;11824;51.178;13.546;2023-03-01T03:05:42;101493.00;;;-5.30
4421;BMP180;11824;51.178;13.546;2023-03-01T03:08:09;101488.00;;;-5.30
4421;BMP180;11824;51.178;13.546;2023-03-01T03:10:39;101496.00;;;-5.30
4421;BMP180;11824;51.178;13.546;2023-03-01T03:13:07;101495.00;;;-5.40
4421;BMP180;11824;51.178;13.546;2023-03-01T03:15:35;101490.00;;;-5.40
4421;BMP180;11824;51.178;13.546;2023-03-01T03:18:05;101487.00;;;-5.40
4421;BMP180;11824;51.178;13.546;2023-03-01T03:20:33;101488.00;;;-5.50
4421;BMP180;11824;51.178;13.546;2023-03-01T03:23:01;101477.00;;;-5.50
4421;BMP180;11824;51.178;13.546;2023-03-01T03:25:29;101475.00;;;-5.50
4421;BMP180;11824;51.178;13.546;2023-03-01T03:27:57;101478.00;;;-5.50
4421;BMP180;11824;51.178;13.546;2023-03-01T03:30:26;101479.00;;;-5.50
4421;BMP180;11824;51.178;13.546;2023-03-01T03:32:54;101466.00;;;-5.50
4421;BMP180;11824;51.178;13.546;2023-03-01T03:35:25;101475.00;;;-5.50
4421;BMP180;11824;51.178;13.546;2023-03-01T03:37:53;101463.00;;;-5.60
4421;BMP180;11824;51.178;13.546;2023-03-01T03:40:31;101469.00;;;-5.60
4421;BMP180;11824;51.178;13.546;2023-03-01T03:42:58;101465.00;;;-5.60
4421;BMP180;11824;51.178;13.546;2023-03-01T03:45:25;101463.00;;;-5.60
4421;BMP180;11824;51.178;13.546;2023-03-01T03:47:53;101452.00;;;-5.60
4421;BMP180;11824;51.178;13.546;2023-03-01T03:50:20;101456.00;;;-5.60
4421;BMP180;11824;51.178;13.546;2023-03-01T03:52:48;101459.00;;;-5.60
4421;BMP180;11824;51.178;13.546;2023-03-01T03:55:16;101458.00;;;-5.60
4421;BMP180;11824;51.178;13.546;2023-03-01T03:57:46;101458.00;;;-5.60
4421;BMP180;11824;51.178;13.546;2023-03-01T04:00:20;101460.00;;;-5.60
4421;BMP180;11824;51.178;13.546;2023-03-01T04:02:48;101470.00;;;-5.60
4421;BMP180;11824;51.178;13.546;2023-03-01T04:05:17;101466.00;;;-5.60
4421;BMP180;11824;51.178;13.546;2023-03-01T04:07:45;101477.00;;;-5.60
4421;BMP180;11824;51.178;13.546;2023-03-01T04:10:16;101478.00;;;-5.60
4421;BMP180;11824;51.178;13.546;2023-03-01T04:12:43;101472.00;;;-5.60
4421;BMP180;11824;51.178;13.546;2023-03-01T04:15:11;101481.00;;;-5.60
4421;BMP180;11824;51.178;13.546;2023-03-01T04:17:43;101474.00;;;-5.60
4421;BMP180;11824;51.178;13.546;2023-03-01T04:20:12;101478.00;;;-5.70
4421;BMP180;11824;51.178;13.546;2023-03-01T04:22:40;101485.00;;;-5.70
4421;BMP180;11824;51.178;13.546;2023-03-01T04:25:08;101485.00;;;-5.70
4421;BMP180;11824;51.178;13.546;2023-03-01T04:27:41;101465.00;;;-5.70
4421;BMP180;11824;51.178;13.546;2023-03-01T04:30:09;101472.00;;;-5.70
4421;BMP180;11824;51.178;13.546;2023-03-01T04:32:37;101459.00;;;-5.70
4421;BMP180;11824;51.178;13.546;2023-03-01T04:35:05;101462.00;;;-5.80
4421;BMP180;11824;51.178;13.546;2023-03-01T04:37:32;101462.00;;;-5.80
4421;BMP180;11824;51.178;13.546;2023-03-01T04:39:59;101475.00;;;-5.80
4421;BMP180;11824;51.178;13.546;2023-03-01T04:42:27;101465.00;;;-5.80
4421;BMP180;11824;51.178;13.546;2023-03-01T04:44:55;101457.00;;;-5.80
4421;BMP180;11824;51.178;13.546;2023-03-01T04:47:22;101465.00;;;-5.80
4421;BMP180;11824;51.178;13.546;2023-03-01T04:49:49;101465.00;;;-5.80
4421;BMP180;11824;51.178;13.546;2023-03-01T04:52:16;101466.00;;;-5.80
4421;BMP180;11824;51.178;13.546;2023-03-01T04:54:44;101466.00;;;-5.80
4421;BMP180;11824;51.178;13.546;2023-03-01T04:57:11;101462.00;;;-5.80
4421;BMP180;11824;51.178;13.546;2023-03-01T04:59:38;101457.00;;;-5.80
4421;BMP180;11824;51.178;13.546;2023-03-01T05:02:06;101459.00;;;-5.90
4421;BMP180;11824;51.178;13.546;2023-03-01T05:04:34;101465.00;;;-5.90
4421;BMP180;11824;51.178;13.546;2023-03-01T05:07:01;101457.00;;;-5.90
4421;BMP180;11824;51.178;13.546;2023-03-01T05:09:28;101459.00;;;-5.90
4421;BMP180;11824;51.178;13.546;2023-03-01T05:11:55;101465.00;;;-6.00
4421;BMP180;11824;51.178;13.546;2023-03-01T05:14:23;101469.00;;;-6.00
4421;BMP180;11824;51.178;13.546;2023-03-01T05:16:50;101467.00;;;-6.00
4421;BMP180;11824;51.178;13.546;2023-03-01T05:19:18;101461.00;;;-6.00
4421;BMP180;11824;51.178;13.546;2023-03-01T05:21:49;101471.00;;;-6.00
4421;BMP180;11824;51.178;13.546;2023-03-01T05:24:31;101464.00;;;-6.10
4421;BMP180;11824;51.178;13.546;2023-03-01T05:26:58;101459.00;;;-6.10
4421;BMP180;11824;51.178;13.546;2023-03-01T05:29:28;101453.00;;;-6.10
4421;BMP180;11824;51.178;13.546;2023-03-01T05:31:57;101455.00;;;-6.10
4421;BMP180;11824;51.178;13.546;2023-03-01T05:34:26;101453.00;;;-6.10
4421;BMP180;11824;51.178;13.546;2023-03-01T05:36:53;101458.00;;;-6.10
4421;BMP180;11824;51.178;13.546;2023-03-01T05:39:21;101450.00;;;-6.10
4421;BMP180;11824;51.178;13.546;2023-03-01T05:41:51;101444.00;;;-6.10
4421;BMP180;11824;51.178;13.546;2023-03-01T05:44:19;101450.00;;;-6.10
4421;BMP180;11824;51.178;13.546;2023-03-01T05:46:47;101459.00;;;-6.10
4421;BMP180;11824;51.178;13.546;2023-03-01T05:49:14;101453.00;;;-6.10
4421;BMP180;11824;51.178;13.546;2023-03-01T05:51:48;101456.00;;;-6.10
4421;BMP180;11824;51.178;13.546;2023-03-01T05:54:16;101464.00;;;-6.10
4421;BMP180;11824;51.178;13.546;2023-03-01T05:56:43;101456.00;;;-6.10
4421;BMP180;11824;51.178;13.546;2023-03-01T05:59:11;101466.00;;;-6.10
4421;BMP180;11824;51.178;13.546;2023-03-01T06:01:40;101453.00;;;-6.10
4421;BMP180;11824;51.178;13.546;2023-03-01T06:04:07;101465.00;;;-6.10
4421;BMP180;11824;51.178;13.546;2023-03-01T06:06:35;101454.00;;;-6.10
4421;BMP180;11824;51.178;13.546;2023-03-01T06:09:04;101466.00;;;-6.10
4421;BMP180;11824;51.178;13.546;2023-03-01T06:11:34;101460.00;;;-6.00
4421;BMP180;11824;51.178;13.546;2023-03-01T06:14:01;101458.00;;;-6.00
4421;BMP180;11824;51.178;13.546;2023-03-01T06:16:29;101464.00;;;-6.00
4421;BMP180;11824;51.178;13.546;2023-03-01T06:18:57;101459.00;;;-5.90
4421;BMP180;11824;51.178;13.546;2023-03-01T06:21:24;101457.00;;;-5.90
4421;BMP180;11824;51.178;13.546;2023-03-01T06:23:51;101465.00;;;-5.90
4421;BMP180;11824;51.178;13.546;2023-03-01T06:26:19;101455.00;;;-5.80
4421;BMP180;11824;51.178;13.546;2023-03-01T06:28:47;101470.00;;;-5.80
4421;BMP180;11824;51.178;13.546;2023-03-01T06:31:14;101460.00;;;-5.70
4421;BMP180;11824;51.178;13.546;2023-03-01T06:33:41;101467.00;;;-5.70
4421;BMP180;11824;51.178;13.546;2023-03-01T06:36:11;101470.00;;;-5.60
4421;BMP180;11824;51.178;13.546;2023-03-01T06:38:38;101465.00;;;-5.60
4421;BMP180;11824;51.178;13.546;2023-03-01T06:41:07;101469.00;;;-5.50
4421;BMP180;11824;51.178;13.546;2023-03-01T06:43:35;101476.00;;;-5.40
4421;BMP180;11824;51.178;13.546;2023-03-01T06:46:04;101469.00;;;-5.40
4421;BMP180;11824;51.178;13.546;2023-03-01T06:48:33;101470.00;;;-5.30
4421;BMP180;11824;51.178;13.546;2023-03-01T06:51:01;101471.00;;;-5.20
4421;BMP180;11824;51.178;13.546;2023-03-01T06:53:28;101461.00;;;-5.10
4421;BMP180;11824;51.178;13.546;2023-03-01T06:55:56;101465.00;;;-5.00
4421;BMP180;11824;51.178;13.546;2023-03-01T06:58:23;101472.00;;;-5.00
4421;BMP180;11824;51.178;13.546;2023-03-01T07:00:51;101466.00;;;-4.90
4421;BMP180;11824;51.178;13.546;2023-03-01T07:03:19;101468.00;;;-4.80
4421;BMP180;11824;51.178;13.546;2023-03-01T07:05:48;101471.00;;;-4.70
4421;BMP180;11824;51.178;13.546;2023-03-01T07:08:16;101473.00;;;-4.60
4421;BMP180;11824;51.178;13.546;2023-03-01T07:10:43;101460.00;;;-4.50
4421;BMP180;11824;51.178;13.546;2023-03-01T07:13:11;101460.00;;;-4.40
4421;BMP180;11824;51.178;13.546;2023-03-01T07:15:39;101470.00;;;-4.30
4421;BMP180;11824;51.178;13.546;2023-03-01T07:18:07;101468.00;;;-4.30
4421;BMP180;11824;51.178;13.546;2023-03-01T07:20:35;101470.00;;;-4.20
4421;BMP180;11824;51.178;13.546;2023-03-01T07:23:02;101473.00;;;-4.10
4421;BMP180;11824;51.178;13.546;2023-03-01T07:25:30;101465.00;;;-4.00
4421;BMP180;11824;51.178;13.546;2023-03-01T07:27:57;101460.00;;;-3.90
4421;BMP180;11824;51.178;13.546;2023-03-01T07:30:25;101451.00;;;-3.80
4421;BMP180;11824;51.178;13.546;2023-03-01T07:32:54;101460.00;;;-3.80
4421;BMP180;11824;51.178;13.546;2023-03-01T07:35:23;101452.00;;;-3.70
4421;BMP180;11824;51.178;13.546;2023-03-01T07:37:52;101456.00;;;-3.60
4421;BMP180;11824;51.178;13.546;2023-03-01T07:40:19;101457.00;;;-3.50
4421;BMP180;11824;51.178;13.546;2023-03-01T07:42:46;101442.00;;;-3.50
4421;BMP180;11824;51.178;13.546;2023-03-01T07:45:14;101454.00;;;-3.40
4421;BMP180;11824;51.178;13.546;2023-03-01T07:47:41;101454.00;;;-3.30
4421;BMP180;11824;51.178;13.546;2023-03-01T07:50:10;101448.00;;;-3.20
4421;BMP180;11824;51.178;13.546;2023-03-01T07:52:41;101461.00;;;-3.20
4421;BMP180;11824;51.178;13.546;2023-03-01T07:55:09;101447.00;;;-3.10
4421;BMP180;11824;51.178;13.546;2023-03-01T07:57:44;101444.00;;;-3.00
4421;BMP180;11824;51.178;13.546;2023-03-01T08:00:13;101452.00;;;-3.00
4421;BMP180;11824;51.178;13.546;2023-03-01T08:02:40;101444.00;;;-2.90
4421;BMP180;11824;51.178;13.546;2023-03-01T08:05:09;101445.00;;;-2.80
4421;BMP180;11824;51.178;13.546;2023-03-01T08:07:38;101453.00;;;-2.70
4421;BMP180;11824;51.178;13.546;2023-03-01T08:10:07;101449.00;;;-2.70
4421;BMP180;11824;51.178;13.546;2023-03-01T08:12:34;101445.00;;;-2.60
4421;BMP180;11824;51.178;13.546;2023-03-01T08:15:02;101440.00;;;-2.60
4421;BMP180;11824;51.178;13.546;2023-03-01T08:17:29;101440.00;;;-2.50
4421;BMP180;11824;51.178;13.546;2023-03-01T08:19:56;101437.00;;;-2.40
4421;BMP180;11824;51.178;13.546;2023-03-01T08:22:23;101430.00;;;-2.30
4421;BMP180;11824;51.178;13.546;2023-03-01T08:24:52;101434.00;;;-2.30
4421;BMP180;11824;51.178;13.546;2023-03-01T08:27:20;101434.00;;;-2.20
4421;BMP180;11824;51.178;13.546;2023-03-01T08:29:47;101422.00;;;-2.20
4421;BMP180;11824;51.178;13.546;2023-03-01T08:32:14;101433.00;;;-2.10
4421;BMP180;11824;51.178;13.546;2023-03-01T08:34:42;101419.00;;;-2.00
4421;BMP180;11824;51.178;13.546;2023-03-01T08:37:09;101423.00;;;-2.00
4421;BMP180;11824;51.178;13.546;2023-03-01T08:39:36;101423.00;;;-1.90
4421;BMP180;11824;51.178;13.546;2023-03-01T08:42:04;101412.00;;;-1.80
4421;BMP180;11824;51.178;13.546;2023-03-01T08:44:32;101420.00;;;-1.70
4421;BMP180;11824;51.178;13.546;2023-03-01T08:47:00;101426.00;;;-1.70
4421;BMP180;11824;51.178;13.546;2023-03-01T08:49:28;101419.00;;;-1.60
4421;BMP180;11824;51.178;13.546;2023-03-01T08:51:56;101419.00;;;-1.60
4421;BMP180;11824;51.178;13.546;2023-03-01T08:54:23;101431.00;;;-1.50
4421;BMP180;11824;51.178;13.546;2023-03-01T08:56:51;101419.00;;;-1.40
4421;BMP180;11824;51.178;13.546;2023-03-01T08:59:18;101418.00;;;-1.30
4421;BMP180;11824;51.178;13.546;2023-03-01T09:01:46;101415.00;;;-1.20
4421;BMP180;11824;51.178;13.546;2023-03-01T09:04:15;101415.00;;;-1.10
4421;BMP180;11824;51.178;13.546;2023-03-01T09:06:43;101409.00;;;-1.10
4421;BMP180;11824;51.178;13.546;2023-03-01T09:09:13;101403.00;;;-1.00
4421;BMP180;11824;51.178;13.546;2023-03-01T09:11:42;101404.00;;;-0.90
4421;BMP180;11824;51.178;13.546;2023-03-01T09:14:10;101403.00;;;-0.80
4421;BMP180;11824;51.178;13.546;2023-03-01T09:16:38;101401.00;;;-0.80
4421;BMP180;11824;51.178;13.546;2023-03-01T09:19:07;101401.00;;;-0.70
4421;BMP180;11824;51.178;13.546;2023-03-01T09:21:34;101393.00;;;-0.60
4421;BMP180;11824;51.178;13.546;2023-03-01T09:24:11;101401.00;;;-0.50
4421;BMP180;11824;51.178;13.546;2023-03-01T09:26:39;101391.00;;;-0.40
4421;BMP180;11824;51.178;13.546;2023-03-01T09:29:06;101387.00;;;-0.30
4421;BMP180;11824;51.178;13.546;2023-03-01T09:31:36;101382.00;;;-0.20
4421;BMP180;11824;51.178;13.546;2023-03-01T09:34:03;101391.00;;;-0.20
4421;BMP180;11824;51.178;13.546;2023-03-01T09:36:31;101390.00;;;-0.10
4421;BMP180;11824;51.178;13.546;2023-03-01T09:38:59;101381.00;;;0.00
4421;BMP180;11824;51.178;13.546;2023-03-01T09:41:47;101381.00;;;0.10
4421;BMP180;11824;51.178;13.546;2023-03-01T09:44:28;101381.00;;;0.20
4421;BMP180;11824;51.178;13.546;2023-03-01T09:46:58;101386.00;;;0.20
4421;BMP180;11824;51.178;13.546;2023-03-01T09:49:27;101383.00;;;0.30
4421;BMP180;11824;51.178;13.546;2023-03-01T09:51:59;101375.00;;;0.40
4421;BMP180;11824;51.178;13.546;2023-03-01T09:54:27;101381.00;;;0.50
4421;BMP180;11824;51.178;13.546;2023-03-01T09:57:09;101384.00;;;0.60
4421;BMP180;11824;51.178;13.546;2023-03-01T09:59:48;101389.00;;;0.70
4421;BMP180;11824;51.178;13.546;2023-03-01T10:02:26;101380.00;;;0.80
4421;BMP180;11824;51.178;13.546;2023-03-01T10:04:57;101393.00;;;0.80
4421;BMP180;11824;51.178;13.546;2023-03-01T10:07:32;101387.00;;;0.90
4421;BMP180;11824;51.178;13.546;2023-03-01T10:10:05;101385.00;;;1.00
4421;BMP180;11824;51.178;13.546;2023-03-01T10:12:36;101374.00;;;1.10
4421;BMP180;11824;51.178;13.546;2023-03-01T10:15:07;101374.00;;;1.30
4421;BMP180;11824;51.178;13.546;2023-03-01T10:17:39;101377.00;;;1.40
4421;BMP180;11824;51.178;13.546;2023-03-01T10:20:17;101376.00;;;1.50
4421;BMP180;11824;51.178;13.546;2023-03-01T10:22:46;101387.00;;;1.70
4421;BMP180;11824;51.178;13.546;2023-03-01T10:25:21;101384.00;;;1.80
4421;BMP180;11824;51.178;13.546;2023-03-01T10:27:53;101381.00;;;1.90
4421;BMP180;11824;51.178;13.546;2023-03-01T10:30:22;101375.00;;;2.00
4421;BMP180;11824;51.178;13.546;2023-03-01T10:32:57;101376.00;;;2.10
4421;BMP180;11824;51.178;13.546;2023-03-01T10:35:28;101373.00;;;2.30
4421;BMP180;11824;51.178;13.546;2023-03-01T10:38:03;101368.00;;;2.30
4421;BMP180;11824;51.178;13.546;2023-03-01T10:40:34;101365.00;;;2.50
4421;BMP180;11824;51.178;13.546;2023-03-01T10:43:04;101370.00;;;2.60
4421;BMP180;11824;51.178;13.546;2023-03-01T10:45:34;101367.00;;;2.70
4421;BMP180;11824;51.178;13.546;2023-03-01T10:48:11;101355.00;;;2.70
4421;BMP180;11824;51.178;13.546;2023-03-01T10:50:40;101357.00;;;2.90
4421;BMP180;11824;51.178;13.546;2023-03-01T10:53:22;101360.00;;;2.90
4421;BMP180;11824;51.178;13.546;2023-03-01T10:56:06;101350.00;;;3.00
4421;BMP180;11824;51.178;13.546;2023-03-01T10:58:35;101349.00;;;3.10
4421;BMP180;11824;51.178;13.546;2023-03-01T11:01:05;101342.00;;;3.20
4421;BMP180;11824;51.178;13.546;2023-03-01T11:03:35;101337.00;;;3.30
4421;BMP180;11824;51.178;13.546;2023-03-01T11:06:05;101333.00;;;3.40
4421;BMP180;11824;51.178;13.546;2023-03-01T11:08:45;101337.00;;;3.40
4421;BMP180;11824;51.178;13.546;2023-03-01T11:11:30;101339.00;;;3.50
4421;BMP180;11824;51.178;13.546;2023-03-01T11:14:00;101344.00;;;3.60
4421;BMP180;11824;51.178;13.546;2023-03-01T11:16:38;101348.00;;;3.70
4421;BMP180;11824;51.178;13.546;2023-03-01T11:19:19;101347.00;;;3.80
4421;BMP180;11824;51.178;13.546;2023-03-01T11:21:59;101344.00;;;3.80
4421;BMP180;11824;51.178;13.546;2023-03-01T11:24:37;101345.00;;;3.90
4421;BMP180;11824;51.178;13.546;2023-03-01T11:27:11;101345.00;;;4.00
4421;BMP180;11824;51.178;13.546;2023-03-01T11:29:41;101348.00;;;4.00
4421;BMP180;11824;51.178;13.546;2023-03-01T11:32:15;101335.00;;;4.10
4421;BMP180;11824;51.178;13.546;2023-03-01T11:34:49;101347.00;;;4.20
4421;BMP180;11824;51.178;13.546;2023-03-01T11:37:29;101338.00;;;4.30
4421;BMP180;11824;51.178;13.546;2023-03-01T11:40:13;101333.00;;;4.30
4421;BMP180;11824;51.178;13.546;2023-03-01T11:42:51;101316.00;;;4.40
4421;BMP180;11824;51.178;13.546;2023-03-01T11:45:23;101324.00;;;4.50
4421;BMP180;11824;51.178;13.546;2023-03-01T11:48:06;101321.00;;;4.60
4421;BMP180;11824;51.178;13.546;2023-03-01T11:50:42;101313.00;;;4.60
4421;BMP180;11824;51.178;13.546;2023-03-01T11:53:31;101321.00;;;4.60
4421;BMP180;11824;51.178;13.546;2023-03-01T11:56:07;101311.00;;;4.70
4421;BMP180;11824;51.178;13.546;2023-03-01T11:58:55;101312.00;;;4.70
4421;BMP180;11824;51.178;13.546;2023-03-01T12:01:40;101306.00;;;4.80
4421;BMP180;11824;51.178;13.546;2023-03-01T12:04:27;101297.00;;;4.80
4421;BMP180;11824;51.178;13.546;2023-03-01T12:07:01;101293.00;;;4.90
4421;BMP180;11824;51.178;13.546;2023-03-01T12:09:44;101302.00;;;4.90
4421;BMP180;11824;51.178;13.546;2023-03-01T12:12:32;101300.00;;;5.00
4421;BMP180;11824;51.178;13.546;2023-03-01T12:15:23;101292.00;;;5.00
4421;BMP180;11824;51.178;13.546;2023-03-01T12:18:22;101284.00;;;5.00
4421;BMP180;11824;51.178;13.546;2023-03-01T12:20:59;101291.00;;;5.10
4421;BMP180;11824;51.178;13.546;2023-03-01T12:26:30;101271.00;;;5.20
4421;BMP180;11824;51.178;13.546;2023-03-01T12:29:18;101279.00;;;5.20
4421;BMP180;11824;51.178;13.546;2023-03-01T12:32:03;101275.00;;;5.20
4421;BMP180;11824;51.178;13.546;2023-03-01T12:34:52;101281.00;;;5.20
4421;BMP180;11824;51.178;13.546;2023-03-01T12:37:31;101282.00;;;5.20
4421;BMP180;11824;51.178;13.546;2023-03-01T12:40:17;101276.00;;;5.30
4421;BMP180;11824;51.178;13.546;2023-03-01T12:43:03;101275.00;;;5.30
4421;BMP180;11824;51.178;13.546;2023-03-01T12:45:47;101259.00;;;5.40
4421;BMP180;11824;51.178;13.546;2023-03-01T12:48:36;101257.00;;;5.40
4421;BMP180;11824;51.178;13.546;2023-03-01T12:51:14;101255.00;;;5.40
4421;BMP180;11824;51.178;13.546;2023-03-01T12:53:45;101257.00;;;5.40
4421;BMP180;11824;51.178;13.546;2023-03-01T12:56:19;101247.00;;;5.50
4421;BMP180;11824;51.178;13.546;2023-03-01T12:59:01;101256.00;;;5.50
4421;BMP180;11824;51.178;13.546;2023-03-01T13:01:39;101246.00;;;5.50
4421;BMP180;11824;51.178;13.546;2023-03-01T13:08:13;101238.00;;;5.60
4421;BMP180;11824;51.178;13.546;2023-03-01T13:10:51;101246.00;;;5.70
4421;BMP180;11824;51.178;13.546;2023-03-01T13:13:32;101246.00;;;5.70
4421;BMP180;11824;51.178;13.546;2023-03-01T13:16:21;101248.00;;;5.70
4421;BMP180;11824;51.178;13.546;2023-03-01T13:19:10;101252.00;;;5.80
4421;BMP180;11824;51.178;13.546;2023-03-01T13:21:58;101248.00;;;5.80
4421;BMP180;11824;51.178;13.546;2023-03-01T13:24:33;101244.00;;;5.80
4421;BMP180;11824;51.178;13.546;2023-03-01T13:30:40;101254.00;;;5.80
4421;BMP180;11824;51.178;13.546;2023-03-01T13:33:42;101242.00;;;5.80
4421;BMP180;11824;51.178;13.546;2023-03-01T13:36:46;101253.00;;;5.90
4421;BMP180;11824;51.178;13.546;2023-03-01T13:39:31;101242.00;;;5.90
4421;BMP180;11824;51.178;13.546;2023-03-01T13:45:32;101242.00;;;5.90
4421;BMP180;11824;51.178;13.546;2023-03-01T13:48:03;101236.00;;;6.00
4421;BMP180;11824;51.178;13.546;2023-03-01T13:50:38;101236.00;;;6.00
4421;BMP180;11824;51.178;13.546;2023-03-01T13:53:16;101222.00;;;6.00
4421;BMP180;11824;51.178;13.546;2023-03-01T13:55:46;101221.00;;;6.00
4421;BMP180;11824;51.178;13.546;2023-03-01T13:58:19;101214.00;;;6.00
4421;BMP180;11824;51.178;13.546;2023-03-01T14:00:47;101212.00;;;6.00
4421;BMP180;11824;51.178;13.546;2023-03-01T14:03:21;101216.00;;;6.10
4421;BMP180;11824;51.178;13.546;2023-03-01T14:06:03;101207.00;;;6.10
4421;BMP180;11824;51.178;13.546;2023-03-01T14:08:43;101218.00;;;6.10
4421;BMP180;11824;51.178;13.546;2023-03-01T14:11:38;101214.00;;;6.10
4421;BMP180;11824;51.178;13.546;2023-03-01T14:17:14;101211.00;;;6.10
4421;BMP180;11824;51.178;13.546;2023-03-01T14:19:46;101211.00;;;6.10
4421;BMP180;11824;51.178;13.546;2023-03-01T14:22:20;101201.00;;;6.10
4421;BMP180;11824;51.178;13.546;2023-03-01T14:24:54;101213.00;;;6.10
4421;BMP180;11824;51.178;13.546;2023-03-01T14:27:22;101212.00;;;6.10
4421;BMP180;11824;51.178;13.546;2023-03-01T14:29:58;101201.00;;;6.10
4421;BMP180;11824;51.178;13.546;2023-03-01T14:32:27;101201.00;;;6.10
4421;BMP180;11824;51.178;13.546;2023-03-01T14:34:56;101202.00;;;6.10
4421;BMP180;11824;51.178;13.546;2023-03-01T14:37:26;101194.00;;;6.10
4421;BMP180;11824;51.178;13.546;2023-03-01T14:39:55;101183.00;;;6.10
4421;BMP180;11824;51.178;13.546;2023-03-01T14:42:25;101179.00;;;6.10